Antelope, Kansas
Current Conditions -  °F | °C
As of 9:35 PM on Wednesday 22 Oct 2014 (Local Time) from KEWK Reporting Station
Overcast Overcast  
Wind Chill: 63°   Ceiling: 5500
Heat Index: 63°   Visibility: 10mi
Dew Point: 54°   Wind: 7mph
Humidity: 72%   Direction: 170°S
Pressure: 30.1"   Gusts: NA
Location:  38.4689°N, 96.9315°W
Report Text: KEWK 230235Z AUTO 17006KT 10SM FEW044 BKN055 OVC075 17/12 A3010 RMK AO1 P0001
Loading
Personal Weather Stations






























Interactive Weather Map New forecast layout! Learn more

10-Day Weather Forecast

Advertisements
Track Severe Weather on mobile